ADDS TAF Board (Experimental) INFO Settings
IDs: Format: Expanded Condensed

KMCO - Orlando Intl, FL, US

Issued at 1457 UTC 01 Jul 2015
Updated at: 1513 UTC 01 Jul 2015
Time1453Z 01/16Z 01/17Z 01/18Z 01/19Z 01/20Z 01/21Z 01/22Z 01/23Z 02/00Z 02/01Z 02/02Z 02/03Z 02/04Z
Type OBS PRVL PRVL PRVL PRVL PRVL PRVL PRVL PRVL PRVL PRVL PRVL PRVL PRVL
VIS 10 >6 >6 >6 >6 >6 >6 >6 >6 >6 >6 >6 >6 >6
CIG -- -- 100 100 100 100 100 120 120 120 120 120 120 120
Cover FEW SCT BKN BKN BKN BKN BKN BKN BKN BKN BKN BKN BKN BKN
FltCat VFR VFR VFR VFR VFR VFR VFR VFR VFR VFR VFR VFR VFR VFR
WX -- VCSH VCTS VCTS VCTS VCTS VCTS VCSH VCSH VCSH VCSH VCSH VCSH VCSH
WDir 240 240 240 240 240 240 240 250 250 250 250 250 250 250
WSpd 6 6 7 7 7 7 7 5 5 5 5 5 5 5
WGst -- -- -- -- -- -- -- -- -- -- -- -- -- --
R17/35
XWnd -5 -5 -6 -6 -6 -6 -6 -5 -5 -5 -5 -5 -5 -5
HWnd 3 3 3 3 3 3 3 2 2 2 2 2 2 2
R18/36
XWnd -5 -5 -6 -6 -6 -6 -6 -5 -5 -5 -5 -5 -5 -5
HWnd 3 3 3 3 3 3 3 2 2 2 2 2 2 2

NOTE: TEMPO conditions in [brackets]. Keep in mind TEMPO conditions might be better (lower impact) than prevailing conditions.

Raw TAF
KMCO 011457Z 0115/0212 24006KT P6SM VCSH SCT035 SCT250
  FM011700 24007KT P6SM VCTS SCT040CB BKN100
  FM012200 25005KT P6SM VCSH SCT035 BKN120


Raw METAR
KMCO 011453Z 24006KT 10SM FEW031TCU FEW250 31/23 A3016 RMK AO2 SLP213 TCU N T03110228 51004
KMCO 011353Z 23005KT 10SM FEW030 30/24 A3016 RMK AO2 SLP212 T03000239
KMCO 011253Z 21006KT 10SM FEW050 SCT250 29/24 A3016 RMK AO2 SLP211 T02890244

METAR Board
Radar Display
Forecast Discussion

TAF Board Legend

Potential Impact
Threat None Slight Moderate High
Visibility (sm) ≥5.1 5.1>X≥3 3>X≥1 <1
Ceiling (100 ft) ≥30.1 30.1>X≥10 10>X≥5 <5
Wind Speed (kt) <10 10≤X<20 20≤X<30 ≥30
Wind Gust (kt) <15 15≤X<25 25≤X<35 ≥35
Weather No Wx Reported VCTS,-TS,-FZRA,SN TS,FZRA +TS,+FZRA,+SN